BVX243B LOWI-EGKK
Flight info
| Callsign | BVX243B |
|---|---|
| Flight time | 1h 34m |
| Altitude | 38000 |
| Route | KPT L856 RAVED Y112 HOC DCT LUL/N0445F380 DCT RLP DCT ROTSI DCT KOTUN DCT NINAL DCT KESAX DCT KUNAV |
| Aircraft | A20N/M-SDE2E3FGHIRWXY/LB1 |
Departure
| Time | 2026-05-06 13:46 |
|---|---|
| Airport | Innsbruck Airport (LOWI) |
Arrival
| Time | 2026-05-06 15:20 |
|---|---|
| Airport | London Gatwick Airport (EGKK) |
| Time | Latitude | Longitude | Altitude | Speed | Heading |
|---|---|---|---|---|---|
| 2026-05-06 13:32 | 47.25811 | 11.34995 | 1900 ft | 0 kts | 175° |
| 2026-05-06 13:36 | 47.25813 | 11.34995 | 1900 ft | 2 kts | 175° |
| 2026-05-06 13:36 | 47.25829 | 11.34993 | 1890 ft | 2 kts | 175° |
| 2026-05-06 13:36 | 47.25845 | 11.34993 | 1890 ft | 2 kts | 197° |
| 2026-05-06 13:37 | 47.25860 | 11.35003 | 1891 ft | 2 kts | 214° |
| 2026-05-06 13:37 | 47.25869 | 11.35018 | 1894 ft | 0 kts | 261° |
| 2026-05-06 13:38 | 47.25869 | 11.35014 | 1900 ft | 2 kts | 261° |
| 2026-05-06 13:39 | 47.25863 | 11.34958 | 1892 ft | 8 kts | 261° |
| 2026-05-06 13:39 | 47.25851 | 11.34852 | 1898 ft | 12 kts | 261° |
| 2026-05-06 13:39 | 47.25836 | 11.34715 | 1900 ft | 15 kts | 264° |
| 2026-05-06 13:39 | 47.25823 | 11.34551 | 1900 ft | 18 kts | 261° |
| 2026-05-06 13:40 | 47.25795 | 11.34292 | 1900 ft | 21 kts | 261° |
| 2026-05-06 13:40 | 47.25780 | 11.34147 | 1896 ft | 22 kts | 261° |
| 2026-05-06 13:40 | 47.25768 | 11.33960 | 1899 ft | 5 kts | 292° |
| 2026-05-06 13:40 | 47.25772 | 11.33947 | 1903 ft | 0 kts | 293° |
| 2026-05-06 13:41 | 47.25775 | 11.33936 | 1906 ft | 4 kts | 296° |
| 2026-05-06 13:41 | 47.25787 | 11.33910 | 1903 ft | 2 kts | 305° |
| 2026-05-06 13:41 | 47.25793 | 11.33898 | 1909 ft | 1 kts | 306° |
| 2026-05-06 13:41 | 47.25793 | 11.33897 | 1903 ft | 0 kts | 306° |
| 2026-05-06 13:42 | 47.25794 | 11.33896 | 1903 ft | 0 kts | 306° |
| 2026-05-06 13:43 | 47.25794 | 11.33895 | 1903 ft | 0 kts | 306° |
| 2026-05-06 13:44 | 47.25799 | 11.33886 | 1899 ft | 1 kts | 309° |
| 2026-05-06 13:44 | 47.25809 | 11.33869 | 1912 ft | 5 kts | 310° |
| 2026-05-06 13:44 | 47.25834 | 11.33825 | 1900 ft | 7 kts | 310° |
| 2026-05-06 13:44 | 47.25875 | 11.33753 | 1916 ft | 15 kts | 307° |
| 2026-05-06 13:45 | 47.25935 | 11.33579 | 1904 ft | 22 kts | 266° |
| 2026-05-06 13:45 | 47.25849 | 11.33137 | 1913 ft | 14 kts | 295° |
| 2026-05-06 13:45 | 47.25888 | 11.33165 | 1903 ft | 7 kts | 73° |
| 2026-05-06 13:46 | 47.25902 | 11.33285 | 1906 ft | 34 kts | 81° |
| 2026-05-06 13:46 | 47.25975 | 11.34001 | 1913 ft | 105 kts | 81° |
| 2026-05-06 13:46 | 47.26122 | 11.35341 | 1955 ft | 155 kts | 82° |
| 2026-05-06 13:46 | 47.26292 | 11.36910 | 2622 ft | 160 kts | 83° |
| 2026-05-06 13:47 | 47.26473 | 11.38650 | 3138 ft | 183 kts | 83° |
| 2026-05-06 13:47 | 47.26670 | 11.40522 | 3918 ft | 185 kts | 83° |
| 2026-05-06 13:47 | 47.26869 | 11.42409 | 4647 ft | 189 kts | 81° |
| 2026-05-06 13:47 | 47.27075 | 11.44340 | 5327 ft | 193 kts | 76° |
| 2026-05-06 13:48 | 47.27510 | 11.46260 | 6074 ft | 199 kts | 70° |
| 2026-05-06 13:48 | 47.28050 | 11.48167 | 6751 ft | 204 kts | 71° |
| 2026-05-06 13:48 | 47.28611 | 11.50097 | 7442 ft | 209 kts | 71° |
| 2026-05-06 13:48 | 47.29041 | 11.52124 | 8137 ft | 207 kts | 94° |
| 2026-05-06 13:49 | 47.28704 | 11.54082 | 8829 ft | 195 kts | 131° |
| 2026-05-06 13:49 | 47.27712 | 11.55246 | 9617 ft | 177 kts | 168° |
| 2026-05-06 13:49 | 47.26526 | 11.55198 | 10266 ft | 173 kts | 205° |
| 2026-05-06 13:49 | 47.25611 | 11.53975 | 10704 ft | 193 kts | 238° |
| 2026-05-06 13:50 | 47.25221 | 11.51948 | 10998 ft | 221 kts | 255° |
| 2026-05-06 13:50 | 47.24974 | 11.49576 | 11158 ft | 248 kts | 254° |
| 2026-05-06 13:50 | 47.24587 | 11.46993 | 11482 ft | 269 kts | 250° |
| 2026-05-06 13:50 | 47.24024 | 11.44262 | 11826 ft | 289 kts | 248° |
| 2026-05-06 13:51 | 47.23552 | 11.41242 | 12082 ft | 318 kts | 260° |
| 2026-05-06 13:51 | 47.23638 | 11.37888 | 12555 ft | 339 kts | 276° |
| 2026-05-06 13:51 | 47.24341 | 11.34552 | 13502 ft | 342 kts | 284° |
| 2026-05-06 13:51 | 47.25131 | 11.31248 | 14333 ft | 345 kts | 283° |
| 2026-05-06 13:52 | 47.25920 | 11.27877 | 14936 ft | 350 kts | 283° |
| 2026-05-06 13:52 | 47.26714 | 11.24473 | 15685 ft | 353 kts | 283° |
| 2026-05-06 13:52 | 47.27516 | 11.21031 | 16385 ft | 357 kts | 283° |
| 2026-05-06 13:52 | 47.28325 | 11.17548 | 17075 ft | 361 kts | 283° |
| 2026-05-06 13:53 | 47.29141 | 11.14036 | 17739 ft | 366 kts | 283° |
| 2026-05-06 13:53 | 47.29971 | 11.10463 | 18360 ft | 370 kts | 283° |
| 2026-05-06 13:53 | 47.30806 | 11.06870 | 18995 ft | 371 kts | 283° |
| 2026-05-06 13:53 | 47.31643 | 11.03264 | 19631 ft | 374 kts | 283° |
| 2026-05-06 13:54 | 47.32486 | 10.99627 | 20254 ft | 376 kts | 283° |
| 2026-05-06 13:54 | 47.33333 | 10.95958 | 20889 ft | 379 kts | 283° |
| 2026-05-06 13:54 | 47.34186 | 10.92257 | 21504 ft | 382 kts | 283° |
| 2026-05-06 13:54 | 47.35041 | 10.88543 | 22185 ft | 384 kts | 283° |
| 2026-05-06 13:55 | 47.35901 | 10.84812 | 22933 ft | 385 kts | 283° |
| 2026-05-06 13:55 | 47.36768 | 10.81051 | 23404 ft | 391 kts | 283° |
| 2026-05-06 13:55 | 47.37643 | 10.77247 | 23861 ft | 393 kts | 284° |
| 2026-05-06 13:55 | 47.38840 | 10.73564 | 24346 ft | 405 kts | 296° |
| 2026-05-06 13:56 | 47.40617 | 10.70270 | 24849 ft | 418 kts | 309° |
| 2026-05-06 13:56 | 47.42911 | 10.67552 | 25319 ft | 429 kts | 319° |
| 2026-05-06 13:56 | 47.45385 | 10.65038 | 25718 ft | 433 kts | 319° |
| 2026-05-06 13:56 | 47.47871 | 10.62512 | 26164 ft | 436 kts | 319° |
| 2026-05-06 13:57 | 47.50379 | 10.59954 | 26644 ft | 439 kts | 319° |
| 2026-05-06 13:57 | 47.52900 | 10.57376 | 27067 ft | 442 kts | 319° |
| 2026-05-06 13:57 | 47.55433 | 10.54776 | 27476 ft | 444 kts | 319° |
| 2026-05-06 13:57 | 47.57968 | 10.52170 | 27858 ft | 446 kts | 319° |
| 2026-05-06 13:58 | 47.60531 | 10.49529 | 28186 ft | 449 kts | 319° |
| 2026-05-06 13:58 | 47.63105 | 10.46875 | 28542 ft | 452 kts | 319° |
| 2026-05-06 13:58 | 47.65693 | 10.44204 | 28939 ft | 455 kts | 319° |
| 2026-05-06 13:58 | 47.68299 | 10.41507 | 29281 ft | 457 kts | 317° |
| 2026-05-06 13:59 | 47.70668 | 10.38429 | 29621 ft | 449 kts | 305° |
| 2026-05-06 13:59 | 47.72503 | 10.34753 | 29932 ft | 439 kts | 292° |
| 2026-05-06 13:59 | 47.73729 | 10.30662 | 30246 ft | 429 kts | 280° |
| 2026-05-06 13:59 | 47.74313 | 10.26371 | 30566 ft | 420 kts | 269° |
| 2026-05-06 14:00 | 47.74325 | 10.22063 | 30863 ft | 416 kts | 262° |
| 2026-05-06 14:00 | 47.74204 | 10.17770 | 31279 ft | 415 kts | 262° |
| 2026-05-06 14:00 | 47.74098 | 10.13500 | 31709 ft | 413 kts | 262° |
| 2026-05-06 14:00 | 47.73998 | 10.09246 | 32132 ft | 411 kts | 262° |
| 2026-05-06 14:01 | 47.73900 | 10.05066 | 32597 ft | 409 kts | 262° |
| 2026-05-06 14:01 | 47.73799 | 10.00847 | 33077 ft | 408 kts | 262° |
| 2026-05-06 14:01 | 47.73697 | 9.96652 | 33524 ft | 406 kts | 262° |
| 2026-05-06 14:01 | 47.73593 | 9.92472 | 33930 ft | 404 kts | 262° |
| 2026-05-06 14:02 | 47.73487 | 9.88304 | 34141 ft | 405 kts | 262° |
| 2026-05-06 14:02 | 47.73378 | 9.84115 | 34344 ft | 407 kts | 262° |
| 2026-05-06 14:02 | 47.73268 | 9.79909 | 34531 ft | 409 kts | 262° |
| 2026-05-06 14:02 | 47.73155 | 9.75682 | 34729 ft | 410 kts | 262° |
| 2026-05-06 14:03 | 47.73040 | 9.71446 | 34935 ft | 412 kts | 262° |
| 2026-05-06 14:03 | 47.72875 | 9.67191 | 35122 ft | 411 kts | 259° |
| 2026-05-06 14:03 | 47.72448 | 9.63011 | 35301 ft | 409 kts | 255° |
| 2026-05-06 14:03 | 47.71924 | 9.58842 | 35477 ft | 411 kts | 255° |
| 2026-05-06 14:04 | 47.71407 | 9.54662 | 35656 ft | 412 kts | 255° |
| 2026-05-06 14:04 | 47.70892 | 9.50471 | 35840 ft | 413 kts | 256° |
| 2026-05-06 14:04 | 47.70376 | 9.46274 | 36011 ft | 414 kts | 256° |
| 2026-05-06 14:04 | 47.69855 | 9.42059 | 36182 ft | 415 kts | 256° |
| 2026-05-06 14:05 | 47.69331 | 9.37836 | 36355 ft | 417 kts | 256° |
| 2026-05-06 14:05 | 47.68804 | 9.33606 | 36514 ft | 418 kts | 256° |
| 2026-05-06 14:05 | 47.68273 | 9.29361 | 36679 ft | 419 kts | 256° |
| 2026-05-06 14:05 | 47.67739 | 9.25108 | 36829 ft | 420 kts | 256° |
| 2026-05-06 14:06 | 47.67201 | 9.20834 | 36995 ft | 421 kts | 256° |
| 2026-05-06 14:06 | 47.66662 | 9.16568 | 37132 ft | 422 kts | 256° |
| 2026-05-06 14:06 | 47.66120 | 9.12284 | 37274 ft | 423 kts | 256° |
| 2026-05-06 14:06 | 47.65575 | 9.07996 | 37412 ft | 424 kts | 256° |
| 2026-05-06 14:07 | 47.65028 | 9.03697 | 37560 ft | 424 kts | 256° |
| 2026-05-06 14:07 | 47.64478 | 8.99396 | 37692 ft | 425 kts | 256° |
| 2026-05-06 14:07 | 47.63925 | 8.95081 | 37825 ft | 426 kts | 257° |
| 2026-05-06 14:07 | 47.63369 | 8.90762 | 37837 ft | 426 kts | 257° |
| 2026-05-06 14:08 | 47.62264 | 8.82203 | 37852 ft | 425 kts | 257° |
| 2026-05-06 14:08 | 47.61145 | 8.73593 | 37860 ft | 425 kts | 256° |
| 2026-05-06 14:09 | 47.60020 | 8.64989 | 37872 ft | 425 kts | 256° |
| 2026-05-06 14:09 | 47.58889 | 8.56397 | 37879 ft | 425 kts | 256° |
| 2026-05-06 14:10 | 47.57754 | 8.47819 | 37879 ft | 424 kts | 256° |
| 2026-05-06 14:10 | 47.56613 | 8.39254 | 37872 ft | 423 kts | 256° |
| 2026-05-06 14:11 | 47.55471 | 8.30726 | 37856 ft | 422 kts | 256° |
| 2026-05-06 14:11 | 47.54325 | 8.22219 | 37845 ft | 421 kts | 256° |
| 2026-05-06 14:12 | 47.53175 | 8.13731 | 37868 ft | 422 kts | 256° |
| 2026-05-06 14:12 | 47.52008 | 8.05176 | 37861 ft | 425 kts | 256° |
| 2026-05-06 14:13 | 47.50837 | 7.96629 | 37859 ft | 424 kts | 256° |
| 2026-05-06 14:13 | 47.49657 | 7.88074 | 37864 ft | 424 kts | 255° |
| 2026-05-06 14:14 | 47.48472 | 7.79535 | 37872 ft | 424 kts | 255° |
| 2026-05-06 14:14 | 47.47358 | 7.70964 | 37879 ft | 426 kts | 261° |
| 2026-05-06 14:15 | 47.47470 | 7.62172 | 37881 ft | 433 kts | 275° |
| 2026-05-06 14:15 | 47.48844 | 7.53507 | 37884 ft | 437 kts | 280° |
| 2026-05-06 14:16 | 47.50320 | 7.44707 | 37893 ft | 438 kts | 279° |
| 2026-05-06 14:16 | 47.51761 | 7.36021 | 37887 ft | 438 kts | 279° |
| 2026-05-06 14:17 | 47.53203 | 7.27282 | 37880 ft | 437 kts | 279° |
| 2026-05-06 14:17 | 47.54640 | 7.18536 | 37872 ft | 437 kts | 279° |
| 2026-05-06 14:18 | 47.56068 | 7.09797 | 37867 ft | 437 kts | 279° |
| 2026-05-06 14:18 | 47.57490 | 7.01047 | 37869 ft | 437 kts | 279° |
| 2026-05-06 14:19 | 47.58906 | 6.92294 | 37871 ft | 437 kts | 279° |
| 2026-05-06 14:19 | 47.60315 | 6.83533 | 37869 ft | 437 kts | 279° |
| 2026-05-06 14:20 | 47.61717 | 6.74769 | 37862 ft | 437 kts | 279° |
| 2026-05-06 14:20 | 47.62877 | 6.67483 | 37866 ft | 438 kts | 279° |
| 2026-05-06 14:21 | 47.64270 | 6.58690 | 37863 ft | 438 kts | 279° |
| 2026-05-06 14:21 | 47.65659 | 6.49881 | 37848 ft | 439 kts | 279° |
| 2026-05-06 14:22 | 47.67043 | 6.41048 | 37849 ft | 440 kts | 279° |
| 2026-05-06 14:22 | 47.68426 | 6.32179 | 37855 ft | 442 kts | 279° |
| 2026-05-06 14:23 | 47.70130 | 6.23388 | 37865 ft | 444 kts | 284° |
| 2026-05-06 14:23 | 47.72006 | 6.14637 | 37861 ft | 445 kts | 284° |
| 2026-05-06 14:24 | 47.73869 | 6.05861 | 37870 ft | 445 kts | 284° |
| 2026-05-06 14:24 | 47.75722 | 5.97076 | 37865 ft | 446 kts | 284° |
| 2026-05-06 14:25 | 47.77570 | 5.88274 | 37867 ft | 446 kts | 284° |
| 2026-05-06 14:25 | 47.79400 | 5.79519 | 37871 ft | 447 kts | 284° |
| 2026-05-06 14:26 | 47.81238 | 5.70687 | 37862 ft | 446 kts | 284° |
| 2026-05-06 14:26 | 47.83065 | 5.61871 | 37864 ft | 446 kts | 284° |
| 2026-05-06 14:27 | 47.84886 | 5.53044 | 37860 ft | 446 kts | 284° |
| 2026-05-06 14:27 | 47.86699 | 5.44216 | 37865 ft | 447 kts | 284° |
| 2026-05-06 14:28 | 47.88510 | 5.35361 | 37868 ft | 447 kts | 284° |
| 2026-05-06 14:28 | 47.90642 | 5.26656 | 37868 ft | 451 kts | 295° |
| 2026-05-06 14:29 | 47.94246 | 5.18964 | 37870 ft | 456 kts | 310° |
| 2026-05-06 14:29 | 47.98516 | 5.11972 | 37869 ft | 456 kts | 309° |
| 2026-05-06 14:30 | 48.02772 | 5.04934 | 37880 ft | 456 kts | 309° |
| 2026-05-06 14:30 | 48.07021 | 4.97893 | 37880 ft | 456 kts | 309° |
| 2026-05-06 14:31 | 48.11271 | 4.90835 | 37867 ft | 457 kts | 309° |
| 2026-05-06 14:31 | 48.15512 | 4.83777 | 37888 ft | 457 kts | 309° |
| 2026-05-06 14:32 | 48.19766 | 4.76676 | 37898 ft | 457 kts | 309° |
| 2026-05-06 14:32 | 48.23979 | 4.69625 | 37879 ft | 457 kts | 309° |
| 2026-05-06 14:33 | 48.28215 | 4.62517 | 37883 ft | 457 kts | 309° |
| 2026-05-06 14:33 | 48.32445 | 4.55399 | 37885 ft | 456 kts | 309° |
| 2026-05-06 14:34 | 48.36673 | 4.48266 | 37902 ft | 456 kts | 309° |
| 2026-05-06 14:34 | 48.40886 | 4.41139 | 37901 ft | 456 kts | 309° |
| 2026-05-06 14:35 | 48.45094 | 4.34000 | 37903 ft | 456 kts | 309° |
| 2026-05-06 14:35 | 48.49288 | 4.26867 | 37901 ft | 453 kts | 309° |
| 2026-05-06 14:36 | 48.53467 | 4.19739 | 37877 ft | 453 kts | 309° |
| 2026-05-06 14:36 | 48.57634 | 4.12611 | 37890 ft | 453 kts | 309° |
| 2026-05-06 14:37 | 48.61796 | 4.05474 | 37890 ft | 452 kts | 309° |
| 2026-05-06 14:37 | 48.65954 | 3.98324 | 37880 ft | 452 kts | 309° |
| 2026-05-06 14:38 | 48.70104 | 3.91169 | 37884 ft | 452 kts | 309° |
| 2026-05-06 14:38 | 48.74388 | 3.84218 | 37886 ft | 452 kts | 314° |
| 2026-05-06 14:39 | 48.78889 | 3.77550 | 37881 ft | 452 kts | 314° |
| 2026-05-06 14:39 | 48.83342 | 3.70918 | 37879 ft | 451 kts | 313° |
| 2026-05-06 14:40 | 48.87817 | 3.64233 | 37878 ft | 451 kts | 313° |
| 2026-05-06 14:40 | 48.92287 | 3.57539 | 37879 ft | 451 kts | 313° |
| 2026-05-06 14:41 | 48.96753 | 3.50831 | 37878 ft | 451 kts | 313° |
| 2026-05-06 14:41 | 49.01215 | 3.44111 | 37882 ft | 452 kts | 313° |
| 2026-05-06 14:42 | 49.05684 | 3.37365 | 37886 ft | 452 kts | 313° |
| 2026-05-06 14:42 | 49.10149 | 3.30605 | 37892 ft | 453 kts | 313° |
| 2026-05-06 14:43 | 49.14618 | 3.23822 | 37896 ft | 453 kts | 313° |
| 2026-05-06 14:43 | 49.19086 | 3.17021 | 37903 ft | 453 kts | 313° |
| 2026-05-06 14:44 | 49.23551 | 3.10207 | 37905 ft | 454 kts | 313° |
| 2026-05-06 14:45 | 49.30239 | 2.99967 | 37898 ft | 451 kts | 313° |
| 2026-05-06 14:45 | 49.34672 | 2.93155 | 37900 ft | 451 kts | 313° |
| 2026-05-06 14:46 | 49.39101 | 2.86330 | 37900 ft | 451 kts | 313° |
| 2026-05-06 14:46 | 49.43519 | 2.79506 | 37899 ft | 451 kts | 313° |
| 2026-05-06 14:47 | 49.47934 | 2.72665 | 37908 ft | 450 kts | 313° |
| 2026-05-06 14:47 | 49.52340 | 2.65822 | 37908 ft | 450 kts | 313° |
| 2026-05-06 14:48 | 49.56736 | 2.58976 | 37912 ft | 449 kts | 313° |
| 2026-05-06 14:48 | 49.61076 | 2.52063 | 37918 ft | 448 kts | 309° |
| 2026-05-06 14:49 | 49.65069 | 2.44772 | 37919 ft | 447 kts | 309° |
| 2026-05-06 14:49 | 49.69106 | 2.37469 | 37919 ft | 447 kts | 309° |
| 2026-05-06 14:50 | 49.73132 | 2.30142 | 37919 ft | 447 kts | 309° |
| 2026-05-06 14:50 | 49.77144 | 2.22810 | 37922 ft | 446 kts | 308° |
| 2026-05-06 14:51 | 49.81150 | 2.15465 | 37924 ft | 446 kts | 308° |
| 2026-05-06 14:51 | 49.85150 | 2.08111 | 37925 ft | 446 kts | 308° |
| 2026-05-06 14:52 | 49.89144 | 2.00748 | 37930 ft | 447 kts | 308° |
| 2026-05-06 14:52 | 49.93137 | 1.93365 | 37931 ft | 446 kts | 308° |
| 2026-05-06 14:53 | 49.97130 | 1.85963 | 37937 ft | 446 kts | 308° |
| 2026-05-06 14:53 | 50.01102 | 1.78579 | 37601 ft | 444 kts | 308° |
| 2026-05-06 14:53 | 50.03079 | 1.74894 | 36964 ft | 445 kts | 308° |
| 2026-05-06 14:54 | 50.05068 | 1.71182 | 36166 ft | 448 kts | 308° |
| 2026-05-06 14:54 | 50.07121 | 1.67521 | 35410 ft | 450 kts | 314° |
| 2026-05-06 14:54 | 50.09430 | 1.64225 | 34723 ft | 450 kts | 319° |
| 2026-05-06 14:54 | 50.11797 | 1.61041 | 34070 ft | 449 kts | 318° |
| 2026-05-06 14:55 | 50.14122 | 1.57886 | 33308 ft | 449 kts | 318° |
| 2026-05-06 14:55 | 50.16478 | 1.54680 | 32446 ft | 450 kts | 318° |
| 2026-05-06 14:55 | 50.18873 | 1.51417 | 31563 ft | 452 kts | 318° |
| 2026-05-06 14:55 | 50.21211 | 1.48228 | 30685 ft | 453 kts | 318° |
| 2026-05-06 14:56 | 50.23591 | 1.44980 | 29777 ft | 455 kts | 318° |
| 2026-05-06 14:56 | 50.25978 | 1.41719 | 28764 ft | 456 kts | 318° |
| 2026-05-06 14:56 | 50.28370 | 1.38446 | 27734 ft | 458 kts | 318° |
| 2026-05-06 14:56 | 50.30771 | 1.35157 | 26687 ft | 459 kts | 317° |
| 2026-05-06 14:57 | 50.33178 | 1.31854 | 25641 ft | 461 kts | 317° |
| 2026-05-06 14:57 | 50.35597 | 1.28530 | 24569 ft | 463 kts | 317° |
| 2026-05-06 14:57 | 50.38023 | 1.25191 | 23616 ft | 463 kts | 317° |
| 2026-05-06 14:57 | 50.40405 | 1.21910 | 23244 ft | 448 kts | 317° |
| 2026-05-06 14:58 | 50.42697 | 1.18748 | 23018 ft | 430 kts | 317° |
| 2026-05-06 14:58 | 50.44914 | 1.15688 | 22558 ft | 420 kts | 317° |
| 2026-05-06 14:58 | 50.47089 | 1.12678 | 21873 ft | 415 kts | 317° |
| 2026-05-06 14:58 | 50.49248 | 1.09686 | 21198 ft | 412 kts | 317° |
| 2026-05-06 14:59 | 50.51367 | 1.06712 | 20626 ft | 405 kts | 315° |
| 2026-05-06 14:59 | 50.53294 | 1.03531 | 20080 ft | 399 kts | 311° |
| 2026-05-06 14:59 | 50.55168 | 1.00363 | 19599 ft | 392 kts | 312° |
| 2026-05-06 14:59 | 50.57013 | 0.97259 | 19101 ft | 386 kts | 312° |
| 2026-05-06 15:00 | 50.58833 | 0.94195 | 18535 ft | 383 kts | 312° |
| 2026-05-06 15:00 | 50.60614 | 0.91192 | 18007 ft | 378 kts | 312° |
| 2026-05-06 15:00 | 50.62395 | 0.88184 | 17467 ft | 372 kts | 312° |
| 2026-05-06 15:00 | 50.64131 | 0.85246 | 16943 ft | 367 kts | 312° |
| 2026-05-06 15:01 | 50.65856 | 0.82322 | 16421 ft | 363 kts | 312° |
| 2026-05-06 15:01 | 50.67547 | 0.79419 | 16058 ft | 354 kts | 310° |
| 2026-05-06 15:01 | 50.69080 | 0.76425 | 15780 ft | 350 kts | 308° |
| 2026-05-06 15:01 | 50.70619 | 0.73407 | 15484 ft | 355 kts | 308° |
| 2026-05-06 15:02 | 50.72165 | 0.70383 | 15214 ft | 353 kts | 308° |
| 2026-05-06 15:02 | 50.73702 | 0.67377 | 14950 ft | 350 kts | 308° |
| 2026-05-06 15:02 | 50.75208 | 0.64426 | 14727 ft | 338 kts | 308° |
| 2026-05-06 15:02 | 50.76622 | 0.61653 | 14546 ft | 319 kts | 308° |
| 2026-05-06 15:03 | 50.77991 | 0.58962 | 14262 ft | 304 kts | 308° |
| 2026-05-06 15:03 | 50.79307 | 0.56371 | 13707 ft | 301 kts | 308° |
| 2026-05-06 15:03 | 50.80584 | 0.53852 | 13091 ft | 298 kts | 309° |
| 2026-05-06 15:03 | 50.81880 | 0.51295 | 12468 ft | 295 kts | 309° |
| 2026-05-06 15:04 | 50.83165 | 0.48757 | 11625 ft | 299 kts | 309° |
| 2026-05-06 15:04 | 50.84492 | 0.46136 | 10617 ft | 310 kts | 309° |
| 2026-05-06 15:04 | 50.85817 | 0.43514 | 10271 ft | 297 kts | 309° |
| 2026-05-06 15:04 | 50.87087 | 0.40997 | 9803 ft | 290 kts | 310° |
| 2026-05-06 15:05 | 50.88340 | 0.38514 | 9222 ft | 286 kts | 310° |
| 2026-05-06 15:05 | 50.89571 | 0.36072 | 8647 ft | 282 kts | 310° |
| 2026-05-06 15:05 | 50.90785 | 0.33662 | 8176 ft | 276 kts | 310° |
| 2026-05-06 15:05 | 50.91944 | 0.31358 | 8004 ft | 258 kts | 310° |
| 2026-05-06 15:06 | 50.93013 | 0.29230 | 7984 ft | 238 kts | 310° |
| 2026-05-06 15:06 | 50.94014 | 0.27210 | 7990 ft | 233 kts | 305° |
| 2026-05-06 15:06 | 50.94586 | 0.24766 | 7991 ft | 242 kts | 282° |
| 2026-05-06 15:06 | 50.94857 | 0.22129 | 7985 ft | 242 kts | 281° |
| 2026-05-06 15:07 | 50.95116 | 0.19501 | 7983 ft | 241 kts | 282° |
| 2026-05-06 15:07 | 50.95426 | 0.16895 | 7984 ft | 241 kts | 283° |
| 2026-05-06 15:07 | 50.95733 | 0.14400 | 7984 ft | 235 kts | 283° |
| 2026-05-06 15:07 | 50.96034 | 0.11940 | 7970 ft | 219 kts | 283° |
| 2026-05-06 15:08 | 50.96312 | 0.09662 | 7971 ft | 203 kts | 283° |
| 2026-05-06 15:08 | 50.96500 | 0.08138 | 7989 ft | 221 kts | 283° |
| 2026-05-06 15:08 | 50.96815 | 0.05597 | 7983 ft | 241 kts | 283° |
| 2026-05-06 15:08 | 50.97134 | 0.02989 | 7980 ft | 240 kts | 283° |
| 2026-05-06 15:09 | 50.97453 | 0.00385 | 7981 ft | 241 kts | 283° |
| 2026-05-06 15:09 | 50.97773 | -0.02223 | 7983 ft | 240 kts | 283° |
| 2026-05-06 15:09 | 50.98092 | -0.04828 | 7986 ft | 241 kts | 283° |
| 2026-05-06 15:09 | 50.98411 | -0.07436 | 7984 ft | 240 kts | 283° |
| 2026-05-06 15:10 | 50.98728 | -0.10035 | 7986 ft | 239 kts | 283° |
| 2026-05-06 15:10 | 50.99045 | -0.12633 | 7985 ft | 239 kts | 283° |
| 2026-05-06 15:10 | 50.99362 | -0.15231 | 7918 ft | 241 kts | 283° |
| 2026-05-06 15:10 | 50.99678 | -0.17829 | 7782 ft | 239 kts | 283° |
| 2026-05-06 15:11 | 50.99996 | -0.20431 | 7417 ft | 240 kts | 283° |
| 2026-05-06 15:11 | 51.00311 | -0.23024 | 6939 ft | 237 kts | 283° |
| 2026-05-06 15:11 | 51.00620 | -0.25572 | 6485 ft | 234 kts | 283° |
| 2026-05-06 15:11 | 51.00926 | -0.28090 | 6012 ft | 231 kts | 283° |
| 2026-05-06 15:12 | 51.01229 | -0.30587 | 5515 ft | 231 kts | 283° |
| 2026-05-06 15:12 | 51.01532 | -0.33096 | 5012 ft | 232 kts | 283° |
| 2026-05-06 15:12 | 51.01837 | -0.35605 | 4506 ft | 232 kts | 283° |
| 2026-05-06 15:12 | 51.02142 | -0.38124 | 3978 ft | 233 kts | 283° |
| 2026-05-06 15:13 | 51.02441 | -0.40610 | 3481 ft | 232 kts | 283° |
| 2026-05-06 15:13 | 51.02739 | -0.43100 | 3105 ft | 225 kts | 284° |
| 2026-05-06 15:13 | 51.03029 | -0.45485 | 2991 ft | 209 kts | 283° |
| 2026-05-06 15:13 | 51.03290 | -0.47666 | 3012 ft | 192 kts | 284° |
| 2026-05-06 15:14 | 51.03550 | -0.49660 | 2990 ft | 180 kts | 294° |
| 2026-05-06 15:14 | 51.04329 | -0.51163 | 2995 ft | 179 kts | 332° |
| 2026-05-06 15:14 | 51.05457 | -0.51574 | 3000 ft | 162 kts | 356° |
| 2026-05-06 15:14 | 51.06541 | -0.51697 | 2991 ft | 150 kts | 356° |
| 2026-05-06 15:15 | 51.07572 | -0.51807 | 2989 ft | 152 kts | 356° |
| 2026-05-06 15:15 | 51.08635 | -0.51913 | 2991 ft | 153 kts | 0° |
| 2026-05-06 15:15 | 51.09659 | -0.51460 | 2991 ft | 157 kts | 31° |
| 2026-05-06 15:15 | 51.10388 | -0.50145 | 3001 ft | 162 kts | 59° |
| 2026-05-06 15:16 | 51.10797 | -0.48455 | 2987 ft | 164 kts | 71° |
| 2026-05-06 15:16 | 51.11053 | -0.46708 | 2996 ft | 162 kts | 75° |
| 2026-05-06 15:16 | 51.11284 | -0.44944 | 2995 ft | 163 kts | 74° |
| 2026-05-06 15:16 | 51.11521 | -0.43173 | 3004 ft | 164 kts | 73° |
| 2026-05-06 15:17 | 51.11762 | -0.41405 | 2896 ft | 163 kts | 73° |
| 2026-05-06 15:17 | 51.11999 | -0.39647 | 2677 ft | 163 kts | 73° |
| 2026-05-06 15:17 | 51.12238 | -0.37889 | 2450 ft | 162 kts | 74° |
| 2026-05-06 15:17 | 51.12478 | -0.36123 | 2242 ft | 165 kts | 73° |
| 2026-05-06 15:18 | 51.12717 | -0.34356 | 2008 ft | 160 kts | 73° |
| 2026-05-06 15:18 | 51.12955 | -0.32638 | 1802 ft | 160 kts | 73° |
| 2026-05-06 15:18 | 51.13191 | -0.30908 | 1580 ft | 159 kts | 73° |
| 2026-05-06 15:18 | 51.13417 | -0.29208 | 1354 ft | 153 kts | 73° |
| 2026-05-06 15:19 | 51.13637 | -0.27610 | 1137 ft | 143 kts | 73° |
| 2026-05-06 15:19 | 51.13846 | -0.26083 | 951 ft | 145 kts | 73° |
| 2026-05-06 15:19 | 51.14059 | -0.24532 | 734 ft | 142 kts | 73° |
| 2026-05-06 15:19 | 51.14272 | -0.22979 | 528 ft | 144 kts | 73° |
| 2026-05-06 15:20 | 51.14487 | -0.21407 | 334 ft | 143 kts | 73° |
| 2026-05-06 15:20 | 51.14698 | -0.19888 | 209 ft | 135 kts | 74° |
| 2026-05-06 15:20 | 51.14842 | -0.18856 | 206 ft | 51 kts | 75° |
| 2026-05-06 15:20 | 51.14952 | -0.18493 | 215 ft | 24 kts | 51° |
| 2026-05-06 15:21 | 51.15010 | -0.18379 | 217 ft | 13 kts | 51° |
| 2026-05-06 15:21 | 51.15039 | -0.18322 | 208 ft | 2 kts | 51° |
| 2026-05-06 15:21 | 51.15040 | -0.18321 | 208 ft | 0 kts | 51° |
| 2026-05-06 15:22 | 51.15048 | -0.18304 | 214 ft | 7 kts | 52° |
| 2026-05-06 15:22 | 51.15099 | -0.18216 | 204 ft | 13 kts | 41° |
| 2026-05-06 15:22 | 51.15180 | -0.18196 | 205 ft | 13 kts | 355° |
| 2026-05-06 15:22 | 51.15214 | -0.18133 | 207 ft | 9 kts | 78° |
| 2026-05-06 15:23 | 51.15226 | -0.18022 | 212 ft | 12 kts | 81° |
| 2026-05-06 15:23 | 51.15242 | -0.17877 | 205 ft | 15 kts | 77° |
| 2026-05-06 15:23 | 51.15268 | -0.17710 | 204 ft | 15 kts | 77° |
| 2026-05-06 15:23 | 51.15292 | -0.17538 | 213 ft | 17 kts | 77° |
| 2026-05-06 15:24 | 51.15338 | -0.17366 | 208 ft | 18 kts | 38° |
| 2026-05-06 15:24 | 51.15389 | -0.17214 | 212 ft | 16 kts | 72° |
| 2026-05-06 15:24 | 51.15422 | -0.17037 | 210 ft | 16 kts | 76° |
| 2026-05-06 15:24 | 51.15448 | -0.16852 | 211 ft | 18 kts | 77° |
| 2026-05-06 15:25 | 51.15447 | -0.16698 | 213 ft | 14 kts | 88° |
| 2026-05-06 15:25 | 51.15497 | -0.16653 | 208 ft | 8 kts | 345° |
| 2026-05-06 15:25 | 51.15525 | -0.16663 | 204 ft | 0 kts | 348° |